Benge, WA (99105)

10:24 AM PDT on September 21, 2014 (GMT -0700)
Winona-Silk Stocking Road | Change Station
CLOSE
Current Station
Personal Weather Station
Location: Endicott, WA
Elevation: 1483 ft
Nearby Weather Stations

Elev 1483 ft 46.94 °N, 117.80 °W | Updated 2 seconds ago

Clear
Clear
80.1 °F
Feels Like 79 °F
N
2.2
Wind Variable Wind from East
Gusts 4.0 mph

Today
High -- | Low -- °F
--% Chance of Precip.
Yesterday
High -- | Low -- °F
Precip. -- in
6:37 AM 6:51 PM
Waning Crescent, 6% visible
Pressure 30.00 in
Visibility 5.0 miles
Clouds Clear
Heat Index 79 °F
Dew Point 44 °F
Humidity 28%
Rainfall 0.00 in
Snow Depth 0 in , 0 in , 0 in
UV 3 out of 12
Pollen 7.90 out of 12
Air Quality Not available.
Flu Activity Not available.
METAR KPUW 211653Z AUTO 11010KT 5SM HZ CLR 23/06 A3003 RMK AO2 SLP157 T02330056

More Conditions Fewer Conditions

Pressure 30.00 in
Visibility 5.0 miles
Clouds Clear
Heat Index 79 °F
Dew Point 44 °F
Humidity 28%
Rainfall 0.00 in
Snow Depth 0 in , 0 in , 0 in
UV 3 out of 12
Pollen 7.90 out of 12
Air Quality Not available.
Flu Activity Not available.
METAR KPUW 211653Z AUTO 11010KT 5SM HZ CLR 23/06 A3003 RMK AO2 SLP157 T02330056

More Conditions Fewer Conditions

10-Day Weather Forecast

Almanac

Astronomy

Sep. 21, 2014 Rise Set
Actual Time 6:37 AM PDT 6:51 PM PDT
Civil Twilight 6:07 AM PDT 7:21 PM PDT
Nautical Twilight 5:31 AM PDT 7:57 PM PDT
Astronomical Twilight 4:54 AM PDT 8:34 PM PDT
Moon 4:08 AM PDT 5:35 PM PDT
Length of Visible Light 13h 14m
Length of Day
12h 13m
Tomorrow will be 3m 20s shorter.
Waning Crescent, 6% of the Moon is Illuminated
Today
Waning Crescent
Sep 24
New
Oct 1
First Quarter
Oct 8
Full
Oct 15
Last Quarter

Today's Extremes

State Highs State Lows

Community

WunderPhotos

Upload Photos

1,755,197 photos uploaded!

WunderBlogs® & News

Nearby

Snow Depth

Station Depth Elevation
Fish Lake 0 in 3371 ft
Lost Horse 0 in 5000 ft
Trough 0 in 5300 ft
White Pass E.S. 0 in 4500 ft
Pigtail Peak 0 in 5900 ft

Earthquake Activity

City Distance Mag. Time & Date
No recent earthquake activity has been reported nearby.
Minimum magnitude displayed is 2.5.

Coastal Water Temperatures

Place Temperature
No Stations Reporting

Nearby Weather Stations